sensor_id;sensor_type;location;lat;lon;timestamp;P1;durP1;ratioP1;P2;durP2;ratioP2
6388;SDS011;3227;42.654;23.360;2024-01-16T00:01:12;14.50;;;7.37;;
6388;SDS011;3227;42.654;23.360;2024-01-16T00:03:39;15.67;;;7.27;;
6388;SDS011;3227;42.654;23.360;2024-01-16T00:06:06;14.00;;;7.37;;
6388;SDS011;3227;42.654;23.360;2024-01-16T00:08:33;13.37;;;6.90;;
6388;SDS011;3227;42.654;23.360;2024-01-16T00:11:02;15.67;;;7.60;;
6388;SDS011;3227;42.654;23.360;2024-01-16T00:13:29;17.63;;;7.40;;
6388;SDS011;3227;42.654;23.360;2024-01-16T00:15:56;13.53;;;7.20;;
6388;SDS011;3227;42.654;23.360;2024-01-16T00:18:23;16.93;;;7.67;;
6388;SDS011;3227;42.654;23.360;2024-01-16T00:20:49;12.93;;;6.90;;
6388;SDS011;3227;42.654;23.360;2024-01-16T00:23:16;12.43;;;6.97;;
6388;SDS011;3227;42.654;23.360;2024-01-16T00:25:43;11.53;;;6.17;;
6388;SDS011;3227;42.654;23.360;2024-01-16T00:28:11;14.90;;;6.70;;
6388;SDS011;3227;42.654;23.360;2024-01-16T00:30:38;12.50;;;6.70;;
6388;SDS011;3227;42.654;23.360;2024-01-16T00:33:05;12.83;;;7.00;;
6388;SDS011;3227;42.654;23.360;2024-01-16T00:35:31;15.07;;;7.27;;
6388;SDS011;3227;42.654;23.360;2024-01-16T00:37:58;12.43;;;6.77;;
6388;SDS011;3227;42.654;23.360;2024-01-16T00:40:25;11.37;;;6.17;;
6388;SDS011;3227;42.654;23.360;2024-01-16T00:42:52;13.03;;;6.20;;
6388;SDS011;3227;42.654;23.360;2024-01-16T00:45:20;10.97;;;6.30;;
6388;SDS011;3227;42.654;23.360;2024-01-16T00:47:47;14.03;;;6.13;;
6388;SDS011;3227;42.654;23.360;2024-01-16T00:50:14;13.00;;;5.93;;
6388;SDS011;3227;42.654;23.360;2024-01-16T00:52:41;10.93;;;6.23;;
6388;SDS011;3227;42.654;23.360;2024-01-16T00:55:08;12.53;;;7.07;;
6388;SDS011;3227;42.654;23.360;2024-01-16T00:57:35;12.20;;;7.07;;
6388;SDS011;3227;42.654;23.360;2024-01-16T01:00:01;12.90;;;6.20;;
6388;SDS011;3227;42.654;23.360;2024-01-16T01:02:30;9.63;;;5.70;;
6388;SDS011;3227;42.654;23.360;2024-01-16T01:04:57;14.07;;;6.93;;
6388;SDS011;3227;42.654;23.360;2024-01-16T01:07:24;13.53;;;6.13;;
6388;SDS011;3227;42.654;23.360;2024-01-16T01:09:52;11.10;;;5.50;;
6388;SDS011;3227;42.654;23.360;2024-01-16T01:12:18;13.13;;;6.40;;
6388;SDS011;3227;42.654;23.360;2024-01-16T01:14:45;11.90;;;6.10;;
6388;SDS011;3227;42.654;23.360;2024-01-16T01:17:12;12.53;;;6.60;;
6388;SDS011;3227;42.654;23.360;2024-01-16T01:19:40;14.57;;;7.20;;
6388;SDS011;3227;42.654;23.360;2024-01-16T01:22:07;11.77;;;6.47;;
6388;SDS011;3227;42.654;23.360;2024-01-16T01:24:34;13.47;;;7.50;;
6388;SDS011;3227;42.654;23.360;2024-01-16T01:27:01;14.17;;;6.90;;
6388;SDS011;3227;42.654;23.360;2024-01-16T01:29:27;10.60;;;6.20;;
6388;SDS011;3227;42.654;23.360;2024-01-16T01:31:54;13.93;;;6.67;;
6388;SDS011;3227;42.654;23.360;2024-01-16T01:34:21;13.13;;;6.37;;
6388;SDS011;3227;42.654;23.360;2024-01-16T01:36:49;13.67;;;6.90;;
6388;SDS011;3227;42.654;23.360;2024-01-16T01:39:16;13.37;;;6.80;;
6388;SDS011;3227;42.654;23.360;2024-01-16T01:41:42;15.30;;;7.60;;
6388;SDS011;3227;42.654;23.360;2024-01-16T01:44:09;14.10;;;6.77;;
6388;SDS011;3227;42.654;23.360;2024-01-16T01:46:40;11.87;;;6.77;;
6388;SDS011;3227;42.654;23.360;2024-01-16T01:49:08;15.17;;;7.20;;
6388;SDS011;3227;42.654;23.360;2024-01-16T01:51:35;13.27;;;6.83;;
6388;SDS011;3227;42.654;23.360;2024-01-16T01:54:03;16.17;;;7.33;;
6388;SDS011;3227;42.654;23.360;2024-01-16T01:56:31;11.50;;;6.17;;
6388;SDS011;3227;42.654;23.360;2024-01-16T01:58:58;14.27;;;7.00;;
6388;SDS011;3227;42.654;23.360;2024-01-16T02:01:27;11.37;;;6.37;;
6388;SDS011;3227;42.654;23.360;2024-01-16T02:03:55;11.00;;;6.63;;
6388;SDS011;3227;42.654;23.360;2024-01-16T02:06:24;12.80;;;7.10;;
6388;SDS011;3227;42.654;23.360;2024-01-16T02:08:51;10.87;;;6.60;;
6388;SDS011;3227;42.654;23.360;2024-01-16T02:11:19;12.53;;;6.77;;
6388;SDS011;3227;42.654;23.360;2024-01-16T02:13:46;13.37;;;6.07;;
6388;SDS011;3227;42.654;23.360;2024-01-16T02:16:19;12.47;;;6.60;;
6388;SDS011;3227;42.654;23.360;2024-01-16T02:18:46;9.97;;;6.17;;
6388;SDS011;3227;42.654;23.360;2024-01-16T02:21:15;12.53;;;6.50;;
6388;SDS011;3227;42.654;23.360;2024-01-16T02:23:46;11.60;;;6.50;;
6388;SDS011;3227;42.654;23.360;2024-01-16T02:26:13;13.30;;;5.97;;
6388;SDS011;3227;42.654;23.360;2024-01-16T02:28:40;11.60;;;5.97;;
6388;SDS011;3227;42.654;23.360;2024-01-16T02:31:07;11.30;;;5.20;;
6388;SDS011;3227;42.654;23.360;2024-01-16T02:33:34;10.43;;;5.40;;
6388;SDS011;3227;42.654;23.360;2024-01-16T02:36:01;12.07;;;5.33;;
6388;SDS011;3227;42.654;23.360;2024-01-16T02:38:28;10.43;;;5.40;;
6388;SDS011;3227;42.654;23.360;2024-01-16T02:40:57;11.63;;;5.90;;
6388;SDS011;3227;42.654;23.360;2024-01-16T02:43:23;11.70;;;5.33;;
6388;SDS011;3227;42.654;23.360;2024-01-16T02:45:51;11.27;;;6.10;;
6388;SDS011;3227;42.654;23.360;2024-01-16T02:48:18;11.13;;;5.60;;
6388;SDS011;3227;42.654;23.360;2024-01-16T02:50:45;12.77;;;6.00;;
6388;SDS011;3227;42.654;23.360;2024-01-16T02:53:12;11.07;;;6.00;;
6388;SDS011;3227;42.654;23.360;2024-01-16T02:55:39;10.43;;;5.90;;
6388;SDS011;3227;42.654;23.360;2024-01-16T02:58:07;10.47;;;5.83;;
6388;SDS011;3227;42.654;23.360;2024-01-16T03:00:34;10.27;;;5.07;;
6388;SDS011;3227;42.654;23.360;2024-01-16T03:03:01;11.17;;;5.50;;
6388;SDS011;3227;42.654;23.360;2024-01-16T03:05:27;11.20;;;6.43;;
6388;SDS011;3227;42.654;23.360;2024-01-16T03:07:54;12.73;;;6.33;;
6388;SDS011;3227;42.654;23.360;2024-01-16T03:10:21;12.63;;;6.30;;
6388;SDS011;3227;42.654;23.360;2024-01-16T03:12:48;10.97;;;5.40;;
6388;SDS011;3227;42.654;23.360;2024-01-16T03:15:16;11.23;;;6.13;;
6388;SDS011;3227;42.654;23.360;2024-01-16T03:17:42;10.30;;;5.93;;
6388;SDS011;3227;42.654;23.360;2024-01-16T03:20:09;10.90;;;5.93;;
6388;SDS011;3227;42.654;23.360;2024-01-16T03:22:38;10.53;;;5.77;;
6388;SDS011;3227;42.654;23.360;2024-01-16T03:25:05;10.00;;;5.50;;
6388;SDS011;3227;42.654;23.360;2024-01-16T03:27:32;11.33;;;5.27;;
6388;SDS011;3227;42.654;23.360;2024-01-16T03:29:59;8.20;;;4.87;;
6388;SDS011;3227;42.654;23.360;2024-01-16T03:32:27;9.80;;;5.30;;
6388;SDS011;3227;42.654;23.360;2024-01-16T03:34:54;9.40;;;4.90;;
6388;SDS011;3227;42.654;23.360;2024-01-16T03:37:21;9.57;;;5.00;;
6388;SDS011;3227;42.654;23.360;2024-01-16T03:39:48;9.43;;;4.90;;
6388;SDS011;3227;42.654;23.360;2024-01-16T03:42:15;7.13;;;3.97;;
6388;SDS011;3227;42.654;23.360;2024-01-16T03:44:42;6.00;;;3.73;;
6388;SDS011;3227;42.654;23.360;2024-01-16T03:47:09;5.73;;;3.60;;
6388;SDS011;3227;42.654;23.360;2024-01-16T03:49:37;5.47;;;3.20;;
6388;SDS011;3227;42.654;23.360;2024-01-16T03:52:04;5.70;;;3.53;;
6388;SDS011;3227;42.654;23.360;2024-01-16T03:54:32;5.80;;;3.43;;
6388;SDS011;3227;42.654;23.360;2024-01-16T03:56:58;4.77;;;3.13;;
6388;SDS011;3227;42.654;23.360;2024-01-16T03:59:25;6.30;;;3.40;;
6388;SDS011;3227;42.654;23.360;2024-01-16T04:01:52;6.03;;;3.40;;
6388;SDS011;3227;42.654;23.360;2024-01-16T04:04:19;4.37;;;2.97;;
6388;SDS011;3227;42.654;23.360;2024-01-16T04:06:49;6.40;;;3.30;;
6388;SDS011;3227;42.654;23.360;2024-01-16T04:09:16;5.10;;;3.10;;
6388;SDS011;3227;42.654;23.360;2024-01-16T04:11:42;5.63;;;3.50;;
6388;SDS011;3227;42.654;23.360;2024-01-16T04:14:10;3.70;;;2.50;;
6388;SDS011;3227;42.654;23.360;2024-01-16T04:16:36;5.33;;;3.03;;
6388;SDS011;3227;42.654;23.360;2024-01-16T04:19:03;6.43;;;3.17;;
6388;SDS011;3227;42.654;23.360;2024-01-16T04:21:30;4.53;;;2.80;;
6388;SDS011;3227;42.654;23.360;2024-01-16T04:23:58;3.13;;;2.17;;
6388;SDS011;3227;42.654;23.360;2024-01-16T04:26:25;3.87;;;2.53;;
6388;SDS011;3227;42.654;23.360;2024-01-16T04:28:51;4.70;;;2.63;;
6388;SDS011;3227;42.654;23.360;2024-01-16T04:31:18;4.00;;;2.63;;
6388;SDS011;3227;42.654;23.360;2024-01-16T04:33:47;4.27;;;2.57;;
6388;SDS011;3227;42.654;23.360;2024-01-16T04:36:14;3.30;;;2.40;;
6388;SDS011;3227;42.654;23.360;2024-01-16T04:38:41;3.23;;;2.30;;
6388;SDS011;3227;42.654;23.360;2024-01-16T04:41:09;3.20;;;2.20;;
6388;SDS011;3227;42.654;23.360;2024-01-16T04:43:36;4.33;;;2.37;;
6388;SDS011;3227;42.654;23.360;2024-01-16T04:46:02;3.97;;;2.60;;
6388;SDS011;3227;42.654;23.360;2024-01-16T04:48:29;3.67;;;2.47;;
6388;SDS011;3227;42.654;23.360;2024-01-16T04:50:56;3.33;;;2.40;;
6388;SDS011;3227;42.654;23.360;2024-01-16T04:53:23;3.80;;;2.40;;
6388;SDS011;3227;42.654;23.360;2024-01-16T04:55:50;3.53;;;2.30;;
6388;SDS011;3227;42.654;23.360;2024-01-16T04:58:18;3.97;;;2.50;;
6388;SDS011;3227;42.654;23.360;2024-01-16T05:00:45;3.30;;;2.30;;
6388;SDS011;3227;42.654;23.360;2024-01-16T05:03:12;3.13;;;2.37;;
6388;SDS011;3227;42.654;23.360;2024-01-16T05:05:39;3.63;;;2.30;;
6388;SDS011;3227;42.654;23.360;2024-01-16T05:08:05;3.63;;;2.40;;
6388;SDS011;3227;42.654;23.360;2024-01-16T05:10:32;3.73;;;2.20;;
6388;SDS011;3227;42.654;23.360;2024-01-16T05:12:59;3.83;;;2.30;;
6388;SDS011;3227;42.654;23.360;2024-01-16T05:15:27;4.30;;;2.40;;
6388;SDS011;3227;42.654;23.360;2024-01-16T05:17:54;3.10;;;2.30;;
6388;SDS011;3227;42.654;23.360;2024-01-16T05:20:21;2.77;;;2.10;;
6388;SDS011;3227;42.654;23.360;2024-01-16T05:22:48;3.73;;;2.50;;
6388;SDS011;3227;42.654;23.360;2024-01-16T05:25:15;3.10;;;2.13;;
6388;SDS011;3227;42.654;23.360;2024-01-16T05:27:43;5.23;;;2.53;;
6388;SDS011;3227;42.654;23.360;2024-01-16T05:30:10;3.40;;;2.13;;
6388;SDS011;3227;42.654;23.360;2024-01-16T05:32:38;3.53;;;2.20;;
6388;SDS011;3227;42.654;23.360;2024-01-16T05:35:06;2.43;;;2.10;;
6388;SDS011;3227;42.654;23.360;2024-01-16T05:37:34;4.23;;;2.30;;
6388;SDS011;3227;42.654;23.360;2024-01-16T05:40:01;2.93;;;2.07;;
6388;SDS011;3227;42.654;23.360;2024-01-16T05:42:29;3.13;;;2.10;;
6388;SDS011;3227;42.654;23.360;2024-01-16T05:44:56;4.30;;;2.40;;
6388;SDS011;3227;42.654;23.360;2024-01-16T05:47:22;3.33;;;2.20;;
6388;SDS011;3227;42.654;23.360;2024-01-16T05:49:54;4.70;;;2.20;;
6388;SDS011;3227;42.654;23.360;2024-01-16T05:52:21;2.70;;;2.10;;
6388;SDS011;3227;42.654;23.360;2024-01-16T05:54:48;2.90;;;2.10;;
6388;SDS011;3227;42.654;23.360;2024-01-16T05:57:14;5.38;;;2.60;;
6388;SDS011;3227;42.654;23.360;2024-01-16T05:59:41;2.93;;;2.23;;
6388;SDS011;3227;42.654;23.360;2024-01-16T06:02:08;3.53;;;2.23;;
6388;SDS011;3227;42.654;23.360;2024-01-16T06:04:36;5.07;;;2.70;;
6388;SDS011;3227;42.654;23.360;2024-01-16T06:07:04;2.43;;;2.03;;
6388;SDS011;3227;42.654;23.360;2024-01-16T06:09:32;3.83;;;2.17;;
6388;SDS011;3227;42.654;23.360;2024-01-16T06:11:59;4.83;;;2.57;;
6388;SDS011;3227;42.654;23.360;2024-01-16T06:14:25;5.47;;;2.60;;
6388;SDS011;3227;42.654;23.360;2024-01-16T06:16:52;3.87;;;2.50;;
6388;SDS011;3227;42.654;23.360;2024-01-16T06:19:19;3.90;;;2.53;;
6388;SDS011;3227;42.654;23.360;2024-01-16T06:21:46;4.33;;;2.63;;
6388;SDS011;3227;42.654;23.360;2024-01-16T06:24:14;4.13;;;2.40;;
6388;SDS011;3227;42.654;23.360;2024-01-16T06:26:41;3.60;;;2.47;;
6388;SDS011;3227;42.654;23.360;2024-01-16T06:29:08;3.93;;;2.53;;
6388;SDS011;3227;42.654;23.360;2024-01-16T06:31:35;6.57;;;2.70;;
6388;SDS011;3227;42.654;23.360;2024-01-16T06:34:02;4.17;;;2.60;;
6388;SDS011;3227;42.654;23.360;2024-01-16T06:36:28;4.17;;;2.60;;
6388;SDS011;3227;42.654;23.360;2024-01-16T06:38:55;5.07;;;2.70;;
6388;SDS011;3227;42.654;23.360;2024-01-16T06:41:23;4.07;;;2.57;;
6388;SDS011;3227;42.654;23.360;2024-01-16T06:43:50;4.63;;;2.70;;
6388;SDS011;3227;42.654;23.360;2024-01-16T06:46:17;10.00;;;2.80;;
6388;SDS011;3227;42.654;23.360;2024-01-16T06:48:44;3.87;;;2.50;;
6388;SDS011;3227;42.654;23.360;2024-01-16T06:51:10;3.47;;;2.20;;
6388;SDS011;3227;42.654;23.360;2024-01-16T06:53:39;3.53;;;2.33;;
6388;SDS011;3227;42.654;23.360;2024-01-16T06:56:06;3.10;;;2.10;;
6388;SDS011;3227;42.654;23.360;2024-01-16T06:58:34;3.20;;;2.17;;
6388;SDS011;3227;42.654;23.360;2024-01-16T07:01:01;3.77;;;2.53;;
6388;SDS011;3227;42.654;23.360;2024-01-16T07:03:28;2.90;;;2.20;;
6388;SDS011;3227;42.654;23.360;2024-01-16T07:05:55;3.23;;;2.40;;
6388;SDS011;3227;42.654;23.360;2024-01-16T07:08:24;3.90;;;2.40;;
6388;SDS011;3227;42.654;23.360;2024-01-16T07:10:50;3.13;;;2.20;;
6388;SDS011;3227;42.654;23.360;2024-01-16T07:13:18;3.20;;;2.20;;
6388;SDS011;3227;42.654;23.360;2024-01-16T07:15:46;3.43;;;2.17;;
6388;SDS011;3227;42.654;23.360;2024-01-16T07:18:13;3.23;;;2.20;;
6388;SDS011;3227;42.654;23.360;2024-01-16T07:20:40;4.37;;;2.30;;
6388;SDS011;3227;42.654;23.360;2024-01-16T07:23:07;5.43;;;2.57;;
6388;SDS011;3227;42.654;23.360;2024-01-16T07:25:34;4.00;;;2.20;;
6388;SDS011;3227;42.654;23.360;2024-01-16T07:28:00;2.97;;;2.20;;
6388;SDS011;3227;42.654;23.360;2024-01-16T07:30:27;4.03;;;2.50;;
6388;SDS011;3227;42.654;23.360;2024-01-16T07:32:55;6.07;;;2.83;;
6388;SDS011;3227;42.654;23.360;2024-01-16T07:35:22;3.60;;;2.40;;
6388;SDS011;3227;42.654;23.360;2024-01-16T07:37:49;3.87;;;2.30;;
6388;SDS011;3227;42.654;23.360;2024-01-16T07:40:16;3.93;;;2.50;;
6388;SDS011;3227;42.654;23.360;2024-01-16T07:42:43;3.93;;;2.30;;
6388;SDS011;3227;42.654;23.360;2024-01-16T07:45:10;2.57;;;2.10;;
6388;SDS011;3227;42.654;23.360;2024-01-16T07:47:36;3.57;;;2.30;;
6388;SDS011;3227;42.654;23.360;2024-01-16T07:50:05;4.63;;;2.57;;
6388;SDS011;3227;42.654;23.360;2024-01-16T07:52:33;3.63;;;2.17;;
6388;SDS011;3227;42.654;23.360;2024-01-16T07:54:59;3.53;;;2.20;;
6388;SDS011;3227;42.654;23.360;2024-01-16T07:57:26;4.53;;;2.60;;
6388;SDS011;3227;42.654;23.360;2024-01-16T07:59:53;5.37;;;2.60;;
6388;SDS011;3227;42.654;23.360;2024-01-16T08:02:20;4.53;;;2.53;;
6388;SDS011;3227;42.654;23.360;2024-01-16T08:04:46;4.23;;;2.50;;
6388;SDS011;3227;42.654;23.360;2024-01-16T08:07:15;2.67;;;2.10;;
6388;SDS011;3227;42.654;23.360;2024-01-16T08:09:46;2.77;;;2.30;;
6388;SDS011;3227;42.654;23.360;2024-01-16T08:12:12;5.30;;;2.60;;
6388;SDS011;3227;42.654;23.360;2024-01-16T08:14:39;3.17;;;2.20;;
6388;SDS011;3227;42.654;23.360;2024-01-16T08:17:06;5.20;;;2.83;;
6388;SDS011;3227;42.654;23.360;2024-01-16T08:19:33;4.70;;;2.60;;
6388;SDS011;3227;42.654;23.360;2024-01-16T08:22:01;4.00;;;2.50;;
6388;SDS011;3227;42.654;23.360;2024-01-16T08:24:31;4.73;;;2.70;;
6388;SDS011;3227;42.654;23.360;2024-01-16T08:26:58;5.03;;;2.93;;
6388;SDS011;3227;42.654;23.360;2024-01-16T08:29:25;4.87;;;2.60;;
6388;SDS011;3227;42.654;23.360;2024-01-16T08:31:51;5.27;;;2.80;;
6388;SDS011;3227;42.654;23.360;2024-01-16T08:34:18;4.07;;;2.33;;
6388;SDS011;3227;42.654;23.360;2024-01-16T08:36:45;4.97;;;2.67;;
6388;SDS011;3227;42.654;23.360;2024-01-16T08:39:12;4.83;;;2.87;;
6388;SDS011;3227;42.654;23.360;2024-01-16T08:41:42;4.67;;;2.63;;
6388;SDS011;3227;42.654;23.360;2024-01-16T08:44:10;5.27;;;2.87;;
6388;SDS011;3227;42.654;23.360;2024-01-16T08:46:37;6.60;;;3.47;;
6388;SDS011;3227;42.654;23.360;2024-01-16T08:49:04;6.07;;;3.43;;
6388;SDS011;3227;42.654;23.360;2024-01-16T08:51:31;4.97;;;2.87;;
6388;SDS011;3227;42.654;23.360;2024-01-16T08:53:57;5.03;;;3.00;;
6388;SDS011;3227;42.654;23.360;2024-01-16T08:56:26;4.47;;;2.50;;
6388;SDS011;3227;42.654;23.360;2024-01-16T08:58:54;4.70;;;2.60;;
6388;SDS011;3227;42.654;23.360;2024-01-16T09:01:21;5.63;;;2.57;;
6388;SDS011;3227;42.654;23.360;2024-01-16T09:03:48;4.07;;;2.40;;
6388;SDS011;3227;42.654;23.360;2024-01-16T09:06:15;5.77;;;2.63;;
6388;SDS011;3227;42.654;23.360;2024-01-16T09:08:42;4.97;;;2.60;;
6388;SDS011;3227;42.654;23.360;2024-01-16T09:11:09;6.30;;;3.00;;
6388;SDS011;3227;42.654;23.360;2024-01-16T09:13:36;7.78;;;3.38;;
6388;SDS011;3227;42.654;23.360;2024-01-16T09:16:05;5.37;;;2.70;;
6388;SDS011;3227;42.654;23.360;2024-01-16T09:18:31;4.93;;;2.73;;
6388;SDS011;3227;42.654;23.360;2024-01-16T09:20:58;7.33;;;2.40;;
6388;SDS011;3227;42.654;23.360;2024-01-16T09:23:25;5.57;;;2.53;;
6388;SDS011;3227;42.654;23.360;2024-01-16T09:25:52;4.93;;;2.70;;
6388;SDS011;3227;42.654;23.360;2024-01-16T09:28:19;4.90;;;2.60;;
6388;SDS011;3227;42.654;23.360;2024-01-16T09:30:45;4.77;;;2.50;;
6388;SDS011;3227;42.654;23.360;2024-01-16T09:33:13;3.33;;;2.30;;
6388;SDS011;3227;42.654;23.360;2024-01-16T09:35:41;4.27;;;2.60;;
6388;SDS011;3227;42.654;23.360;2024-01-16T09:38:08;3.57;;;2.23;;
6388;SDS011;3227;42.654;23.360;2024-01-16T09:40:35;4.90;;;2.40;;
6388;SDS011;3227;42.654;23.360;2024-01-16T09:43:02;3.83;;;2.40;;
6388;SDS011;3227;42.654;23.360;2024-01-16T09:45:34;5.27;;;2.77;;
6388;SDS011;3227;42.654;23.360;2024-01-16T09:48:04;3.97;;;2.30;;
6388;SDS011;3227;42.654;23.360;2024-01-16T09:50:34;5.27;;;2.50;;
6388;SDS011;3227;42.654;23.360;2024-01-16T09:53:01;4.07;;;2.50;;
6388;SDS011;3227;42.654;23.360;2024-01-16T09:55:29;5.30;;;2.37;;
6388;SDS011;3227;42.654;23.360;2024-01-16T09:57:56;4.07;;;2.60;;
6388;SDS011;3227;42.654;23.360;2024-01-16T10:00:24;3.20;;;2.33;;
6388;SDS011;3227;42.654;23.360;2024-01-16T10:02:52;3.47;;;2.43;;
6388;SDS011;3227;42.654;23.360;2024-01-16T10:05:23;3.67;;;2.30;;
6388;SDS011;3227;42.654;23.360;2024-01-16T10:07:52;3.77;;;2.47;;
6388;SDS011;3227;42.654;23.360;2024-01-16T10:10:19;4.87;;;2.40;;
6388;SDS011;3227;42.654;23.360;2024-01-16T10:12:47;4.60;;;2.43;;
6388;SDS011;3227;42.654;23.360;2024-01-16T10:15:16;4.07;;;2.60;;
6388;SDS011;3227;42.654;23.360;2024-01-16T10:17:46;4.67;;;2.50;;
6388;SDS011;3227;42.654;23.360;2024-01-16T10:20:12;3.40;;;2.37;;
6388;SDS011;3227;42.654;23.360;2024-01-16T10:22:42;3.07;;;2.17;;
6388;SDS011;3227;42.654;23.360;2024-01-16T10:25:20;4.37;;;2.10;;
6388;SDS011;3227;42.654;23.360;2024-01-16T10:27:48;3.70;;;2.37;;
6388;SDS011;3227;42.654;23.360;2024-01-16T10:30:16;4.77;;;2.47;;
6388;SDS011;3227;42.654;23.360;2024-01-16T10:32:48;3.60;;;2.20;;
6388;SDS011;3227;42.654;23.360;2024-01-16T10:35:15;6.20;;;2.73;;
6388;SDS011;3227;42.654;23.360;2024-01-16T10:37:42;4.17;;;2.53;;
6388;SDS011;3227;42.654;23.360;2024-01-16T10:40:12;3.37;;;2.40;;
6388;SDS011;3227;42.654;23.360;2024-01-16T10:42:57;4.75;;;2.42;;
6388;SDS011;3227;42.654;23.360;2024-01-16T10:45:25;4.60;;;2.47;;
6388;SDS011;3227;42.654;23.360;2024-01-16T10:47:55;4.50;;;2.53;;
6388;SDS011;3227;42.654;23.360;2024-01-16T10:50:27;4.88;;;2.58;;
6388;SDS011;3227;42.654;23.360;2024-01-16T10:52:54;6.07;;;2.50;;
6388;SDS011;3227;42.654;23.360;2024-01-16T10:55:22;4.97;;;2.55;;
6388;SDS011;3227;42.654;23.360;2024-01-16T10:57:49;6.50;;;2.60;;
6388;SDS011;3227;42.654;23.360;2024-01-16T11:00:18;4.20;;;2.40;;
6388;SDS011;3227;42.654;23.360;2024-01-16T11:02:50;4.77;;;2.33;;
6388;SDS011;3227;42.654;23.360;2024-01-16T11:05:23;3.58;;;2.35;;
6388;SDS011;3227;42.654;23.360;2024-01-16T11:07:52;3.90;;;2.30;;
6388;SDS011;3227;42.654;23.360;2024-01-16T11:10:23;4.57;;;2.60;;
6388;SDS011;3227;42.654;23.360;2024-01-16T11:12:50;5.73;;;2.77;;
6388;SDS011;3227;42.654;23.360;2024-01-16T11:15:19;7.30;;;3.30;;
6388;SDS011;3227;42.654;23.360;2024-01-16T11:17:46;6.17;;;3.10;;
6388;SDS011;3227;42.654;23.360;2024-01-16T11:20:13;6.57;;;3.13;;
6388;SDS011;3227;42.654;23.360;2024-01-16T11:22:55;5.37;;;2.87;;
6388;SDS011;3227;42.654;23.360;2024-01-16T11:25:31;5.93;;;3.17;;
6388;SDS011;3227;42.654;23.360;2024-01-16T11:28:07;6.70;;;3.40;;
6388;SDS011;3227;42.654;23.360;2024-01-16T11:30:35;5.93;;;3.33;;
6388;SDS011;3227;42.654;23.360;2024-01-16T11:33:02;6.20;;;3.10;;
6388;SDS011;3227;42.654;23.360;2024-01-16T11:35:33;5.10;;;2.90;;
6388;SDS011;3227;42.654;23.360;2024-01-16T11:38:06;4.73;;;2.73;;
6388;SDS011;3227;42.654;23.360;2024-01-16T11:40:36;3.47;;;2.40;;
6388;SDS011;3227;42.654;23.360;2024-01-16T11:46:03;6.07;;;2.60;;
6388;SDS011;3227;42.654;23.360;2024-01-16T11:48:31;5.33;;;2.60;;
6388;SDS011;3227;42.654;23.360;2024-01-16T11:50:57;4.67;;;2.80;;
6388;SDS011;3227;42.654;23.360;2024-01-16T11:53:31;6.37;;;3.00;;
6388;SDS011;3227;42.654;23.360;2024-01-16T11:56:11;6.63;;;3.33;;
6388;SDS011;3227;42.654;23.360;2024-01-16T11:58:48;5.70;;;2.43;;
6388;SDS011;3227;42.654;23.360;2024-01-16T12:01:27;5.07;;;3.00;;
6388;SDS011;3227;42.654;23.360;2024-01-16T12:04:03;5.67;;;2.93;;
6388;SDS011;3227;42.654;23.360;2024-01-16T12:06:30;5.73;;;3.20;;
6388;SDS011;3227;42.654;23.360;2024-01-16T12:09:10;7.07;;;3.07;;
6388;SDS011;3227;42.654;23.360;2024-01-16T12:11:39;5.70;;;3.07;;
6388;SDS011;3227;42.654;23.360;2024-01-16T12:14:08;6.20;;;3.00;;
6388;SDS011;3227;42.654;23.360;2024-01-16T12:16:35;6.23;;;3.50;;
6388;SDS011;3227;42.654;23.360;2024-01-16T12:19:06;6.00;;;3.10;;
6388;SDS011;3227;42.654;23.360;2024-01-16T12:21:33;4.60;;;2.60;;
6388;SDS011;3227;42.654;23.360;2024-01-16T12:24:01;4.33;;;2.53;;
6388;SDS011;3227;42.654;23.360;2024-01-16T12:26:29;5.90;;;3.00;;
6388;SDS011;3227;42.654;23.360;2024-01-16T12:28:58;4.73;;;3.00;;
6388;SDS011;3227;42.654;23.360;2024-01-16T12:31:25;4.60;;;2.70;;
6388;SDS011;3227;42.654;23.360;2024-01-16T12:33:52;8.30;;;2.87;;
6388;SDS011;3227;42.654;23.360;2024-01-16T12:36:19;6.50;;;3.13;;
6388;SDS011;3227;42.654;23.360;2024-01-16T12:38:53;8.77;;;3.27;;
6388;SDS011;3227;42.654;23.360;2024-01-16T12:41:21;7.03;;;3.37;;
6388;SDS011;3227;42.654;23.360;2024-01-16T12:43:51;6.00;;;2.90;;
6388;SDS011;3227;42.654;23.360;2024-01-16T12:46:19;6.70;;;2.97;;
6388;SDS011;3227;42.654;23.360;2024-01-16T12:48:46;5.20;;;2.93;;
6388;SDS011;3227;42.654;23.360;2024-01-16T12:51:19;4.60;;;2.53;;
6388;SDS011;3227;42.654;23.360;2024-01-16T12:53:47;6.27;;;2.87;;
6388;SDS011;3227;42.654;23.360;2024-01-16T12:56:17;4.43;;;2.57;;
6388;SDS011;3227;42.654;23.360;2024-01-16T12:58:45;5.73;;;2.80;;
6388;SDS011;3227;42.654;23.360;2024-01-16T13:01:23;4.47;;;2.57;;
6388;SDS011;3227;42.654;23.360;2024-01-16T13:03:51;6.70;;;2.92;;
6388;SDS011;3227;42.654;23.360;2024-01-16T13:06:18;6.10;;;3.00;;
6388;SDS011;3227;42.654;23.360;2024-01-16T13:08:46;5.70;;;3.00;;
6388;SDS011;3227;42.654;23.360;2024-01-16T13:11:13;4.23;;;2.63;;
6388;SDS011;3227;42.654;23.360;2024-01-16T13:13:44;5.27;;;2.80;;
6388;SDS011;3227;42.654;23.360;2024-01-16T13:16:11;6.43;;;3.03;;
6388;SDS011;3227;42.654;23.360;2024-01-16T13:18:40;5.50;;;2.70;;
6388;SDS011;3227;42.654;23.360;2024-01-16T13:21:07;4.90;;;3.00;;
6388;SDS011;3227;42.654;23.360;2024-01-16T13:23:33;5.50;;;2.70;;
6388;SDS011;3227;42.654;23.360;2024-01-16T13:26:00;6.33;;;2.97;;
6388;SDS011;3227;42.654;23.360;2024-01-16T13:28:29;6.97;;;3.13;;
6388;SDS011;3227;42.654;23.360;2024-01-16T13:30:57;4.93;;;2.80;;
6388;SDS011;3227;42.654;23.360;2024-01-16T13:33:24;5.13;;;3.00;;
6388;SDS011;3227;42.654;23.360;2024-01-16T13:35:54;7.40;;;3.40;;
6388;SDS011;3227;42.654;23.360;2024-01-16T13:38:21;5.60;;;3.43;;
6388;SDS011;3227;42.654;23.360;2024-01-16T13:40:47;4.87;;;2.60;;
6388;SDS011;3227;42.654;23.360;2024-01-16T13:43:15;6.07;;;3.28;;
6388;SDS011;3227;42.654;23.360;2024-01-16T13:45:42;7.00;;;3.33;;
6388;SDS011;3227;42.654;23.360;2024-01-16T13:48:09;4.33;;;2.63;;
6388;SDS011;3227;42.654;23.360;2024-01-16T13:50:36;4.90;;;2.90;;
6388;SDS011;3227;42.654;23.360;2024-01-16T13:53:04;5.93;;;3.25;;
6388;SDS011;3227;42.654;23.360;2024-01-16T13:55:32;7.97;;;3.30;;
6388;SDS011;3227;42.654;23.360;2024-01-16T13:57:59;5.77;;;3.10;;
6388;SDS011;3227;42.654;23.360;2024-01-16T14:00:26;7.70;;;3.90;;
6388;SDS011;3227;42.654;23.360;2024-01-16T14:02:52;7.40;;;3.83;;
6388;SDS011;3227;42.654;23.360;2024-01-16T14:05:20;7.10;;;4.00;;
6388;SDS011;3227;42.654;23.360;2024-01-16T14:07:48;7.73;;;3.60;;
6388;SDS011;3227;42.654;23.360;2024-01-16T14:10:18;6.25;;;3.25;;
6388;SDS011;3227;42.654;23.360;2024-01-16T14:12:47;4.10;;;2.77;;
6388;SDS011;3227;42.654;23.360;2024-01-16T14:15:16;6.50;;;3.07;;
6388;SDS011;3227;42.654;23.360;2024-01-16T14:17:46;5.47;;;2.90;;
6388;SDS011;3227;42.654;23.360;2024-01-16T14:20:14;8.13;;;3.13;;
6388;SDS011;3227;42.654;23.360;2024-01-16T14:22:42;5.93;;;3.30;;
6388;SDS011;3227;42.654;23.360;2024-01-16T14:25:09;6.50;;;3.10;;
6388;SDS011;3227;42.654;23.360;2024-01-16T14:27:39;4.50;;;2.70;;
6388;SDS011;3227;42.654;23.360;2024-01-16T14:30:07;4.30;;;2.73;;
6388;SDS011;3227;42.654;23.360;2024-01-16T14:32:36;8.00;;;3.03;;
6388;SDS011;3227;42.654;23.360;2024-01-16T14:35:04;8.23;;;3.13;;
6388;SDS011;3227;42.654;23.360;2024-01-16T14:37:32;6.03;;;3.10;;
6388;SDS011;3227;42.654;23.360;2024-01-16T14:39:59;8.93;;;3.40;;
6388;SDS011;3227;42.654;23.360;2024-01-16T14:42:27;6.75;;;3.70;;
6388;SDS011;3227;42.654;23.360;2024-01-16T14:44:55;7.45;;;3.65;;
6388;SDS011;3227;42.654;23.360;2024-01-16T14:47:22;5.00;;;3.03;;
6388;SDS011;3227;42.654;23.360;2024-01-16T14:49:49;5.07;;;2.77;;
6388;SDS011;3227;42.654;23.360;2024-01-16T14:52:19;5.50;;;2.67;;
6388;SDS011;3227;42.654;23.360;2024-01-16T14:54:46;5.20;;;2.97;;
6388;SDS011;3227;42.654;23.360;2024-01-16T14:57:13;4.53;;;2.50;;
6388;SDS011;3227;42.654;23.360;2024-01-16T14:59:40;4.97;;;2.93;;
6388;SDS011;3227;42.654;23.360;2024-01-16T15:02:08;6.17;;;3.40;;
6388;SDS011;3227;42.654;23.360;2024-01-16T15:04:38;6.30;;;3.17;;